This is the latest recevied weather packets stored in our database for station/object KY4OP-13. If no packets are shown the sender has not sent any weather packets the latest 10 day(s).
| Time | Temp. | Humidity | Pressure | Rain* | Wind** | Luminosity | Snow |
|---|---|---|---|---|---|---|---|
| 1777844046 | 18.33° C | 27% | 1016.3 hPa | 0 mm | - | - | - |
| 1777843742 | 18.33° C | 27% | 1016.5 hPa | 0 mm | - | - | - |
| 1777843440 | 18.33° C | 28% | 1016.4 hPa | 0 mm | - | - | - |
| 1777843137 | 18.33° C | 27% | 1016.5 hPa | 0 mm | - | - | - |
| 1777842834 | 18.33° C | 30% | 1016.4 hPa | 0 mm | - | - | - |
| 1777842528 | 17.78° C | 27% | 1016.6 hPa | 0 mm | - | - | - |
| 1777842226 | 18.33° C | 26% | 1016.6 hPa | 0 mm | - | - | - |
| 1777841921 | 17.78° C | 32% | 1016.6 hPa | 0 mm | - | - | - |
| 1777841618 | 17.78° C | 30% | 1017.1 hPa | 0 mm | - | - | - |
| 1777841314 | 18.33° C | 28% | 1016.4 hPa | 0 mm | - | - | - |
| 1777841012 | 18.33° C | 31% | 1016.6 hPa | 0 mm | - | - | - |
| 1777840709 | 18.89° C | 30% | 1016.4 hPa | 0 mm | - | - | - |
| 1777840406 | 17.78° C | 32% | 1016.7 hPa | 0 mm | - | - | - |
| 1777840103 | 17.22° C | 36% | 1016.8 hPa | 0 mm | - | - | - |
| 1777839801 | 17.78° C | 31% | 1016.8 hPa | 0 mm | - | - | - |
| 1777839499 | 18.33° C | 28% | 1016.8 hPa | 0 mm | - | - | - |
| 1777839196 | 18.33° C | 27% | 1016.8 hPa | 0 mm | - | - | - |
| 1777838894 | 17.78° C | 30% | 1016.9 hPa | 0 mm | - | - | - |
| 1777838589 | 18.33° C | 28% | 1016.9 hPa | 0 mm | - | - | - |
| 1777838287 | 17.22° C | 33% | 1017.3 hPa | 0 mm | - | - | - |
| 1777837983 | 17.22° C | 31% | 1017.2 hPa | 0 mm | - | - | - |
| 1777837680 | 16.67° C | 30% | 1017.3 hPa | 0 mm | - | - | - |
| 1777837376 | 17.22° C | 30% | 1017.2 hPa | 0 mm | - | - | - |
| 1777837073 | 17.78° C | 31% | 1017.4 hPa | 0 mm | - | - | - |
| 1777836769 | 16.67° C | 31% | 1017.5 hPa | 0 mm | - | - | - |
* Rain latest hour (hover to see other rain measurements)
** Current wind speed in m/s (hover to see current wind gust speed)